Time;durP1;ratioP1;P1;durP2;ratioP2;P2;SDS_P1;SDS_P2;PMS_P1;PMS_P2;Temp;Humidity;BMP_temperature;BMP_pressure;BME280_temperature;BME280_humidity;BME280_pressure;Samples;Min_cycle;Max_cycle;Signal;HPM_P1;HPM_P2
2021/09/17 00:00:29;;;;;;;0.30;0.30;;;23.80;60.60;;;;;;6316293;28;20135;-72
2021/09/17 00:03:30;;;;;;;0.30;0.30;;;23.80;60.60;;;;;;6315913;28;20047;-72
2021/09/17 00:06:31;;;;;;;0.20;0.20;;;23.80;60.60;;;;;;6316323;28;20028;-72
2021/09/17 00:09:31;;;;;;;0.30;0.30;;;23.80;60.60;;;;;;6315607;28;20322;-71
2021/09/17 00:12:32;;;;;;;0.30;0.30;;;23.80;61.50;;;;;;6315843;28;20034;-71
2021/09/17 00:15:32;;;;;;;0.43;0.32;;;23.80;60.60;;;;;;6298598;28;20032;-71
2021/09/17 00:18:33;;;;;;;0.65;0.30;;;23.80;60.60;;;;;;6301123;28;20032;-71
2021/09/17 00:21:33;;;;;;;0.25;0.25;;;23.80;60.60;;;;;;6315968;28;20035;-71
2021/09/17 00:24:34;;;;;;;0.40;0.30;;;23.80;60.60;;;;;;6315329;28;20065;-71
2021/09/17 00:27:35;;;;;;;0.73;0.50;;;23.80;60.70;;;;;;6315651;28;20073;-72
2021/09/17 00:30:35;;;;;;;0.20;0.20;;;23.80;60.60;;;;;;6314822;28;20027;-71
2021/09/17 00:33:36;;;;;;;0.30;0.20;;;23.80;60.60;;;;;;6315912;28;20428;-71
2021/09/17 00:36:37;;;;;;;0.30;0.30;;;23.80;60.60;;;;;;6315521;28;20051;-72
2021/09/17 00:39:37;;;;;;;0.70;0.38;;;23.80;60.60;;;;;;6315351;28;20032;-71
2021/09/17 00:42:39;;;;;;;0.32;0.32;;;23.80;60.60;;;;;;6315789;28;20039;-71
2021/09/17 00:45:41;;;;;;;0.32;0.30;;;23.80;60.60;;;;;;6315644;28;20118;-71
2021/09/17 00:48:41;;;;;;;0.47;0.20;;;23.80;60.60;;;;;;6315188;28;20046;-72
2021/09/17 00:51:42;;;;;;;0.20;0.20;;;23.80;60.60;;;;;;6315559;28;20404;-71
2021/09/17 00:54:42;;;;;;;0.57;0.40;;;23.80;60.60;;;;;;6312007;28;20107;-71
2021/09/17 00:57:43;;;;;;;1.02;0.38;;;23.80;60.60;;;;;;6315428;28;20039;-71
2021/09/17 01:00:43;;;;;;;0.32;0.30;;;23.80;60.60;;;;;;6314910;28;20032;-71
2021/09/17 01:03:44;;;;;;;0.30;0.30;;;23.80;60.60;;;;;;6315138;28;20031;-71
2021/09/17 01:06:45;;;;;;;0.30;0.20;;;23.80;60.60;;;;;;6315482;28;20494;-71
2021/09/17 01:09:47;;;;;;;0.28;0.28;;;23.80;60.60;;;;;;6314377;28;20063;-71
2021/09/17 01:12:48;;;;;;;0.30;0.30;;;23.80;60.60;;;;;;6315546;28;20521;-71
2021/09/17 01:15:49;;;;;;;0.40;0.20;;;23.80;60.60;;;;;;6319510;28;20024;-71
2021/09/17 01:18:51;;;;;;;0.28;0.28;;;23.80;60.60;;;;;;6319730;28;20047;-72
2021/09/17 01:22:03;;;;;;;0.30;0.30;;;23.80;60.60;;;;;;6320405;28;20544;-72
2021/09/17 01:25:09;;;;;;;0.20;0.20;;;23.80;60.60;;;;;;6320238;28;20050;-72
2021/09/17 01:28:10;;;;;;;0.20;0.20;;;23.80;60.60;;;;;;6319834;28;20112;-73
2021/09/17 01:31:11;;;;;;;1.10;0.30;;;23.80;60.60;;;;;;6320184;28;20040;-72
2021/09/17 01:34:16;;;;;;;0.40;0.35;;;23.80;60.60;;;;;;6319893;28;20028;-72
2021/09/17 01:37:17;;;;;;;0.30;0.30;;;23.80;60.60;;;;;;6320069;28;20028;-71
2021/09/17 01:40:18;;;;;;;0.40;0.35;;;23.80;60.60;;;;;;6319321;28;20024;-72
2021/09/17 01:43:20;;;;;;;0.20;0.20;;;23.80;60.60;;;;;;6320082;28;20710;-72
2021/09/17 01:46:20;;;;;;;0.40;0.32;;;23.80;60.60;;;;;;6320064;28;20111;-71
2021/09/17 01:49:21;;;;;;;0.40;0.40;;;23.80;60.60;;;;;;6319221;28;20036;-72
2021/09/17 01:52:22;;;;;;;0.30;0.30;;;23.80;60.60;;;;;;6319771;28;20249;-71
2021/09/17 01:55:23;;;;;;;0.30;0.20;;;23.80;60.60;;;;;;6319711;28;20024;-71
2021/09/17 01:58:24;;;;;;;0.30;0.30;;;23.80;60.60;;;;;;6319274;28;20036;-72
2021/09/17 02:01:25;;;;;;;0.38;0.30;;;23.80;60.60;;;;;;6319449;28;20017;-72
2021/09/17 02:04:26;;;;;;;0.30;0.30;;;23.80;60.60;;;;;;6319264;28;20479;-72
2021/09/17 02:07:26;;;;;;;0.38;0.38;;;23.80;60.70;;;;;;6317607;28;20059;-72
2021/09/17 02:10:28;;;;;;;0.40;0.30;;;23.80;60.60;;;;;;6319364;28;20036;-72
2021/09/17 02:13:28;;;;;;;1.13;0.30;;;23.80;60.60;;;;;;6318783;28;20369;-71
2021/09/17 02:16:29;;;;;;;0.40;0.30;;;23.80;60.60;;;;;;6310450;28;20173;-71
2021/09/17 02:19:29;;;;;;;0.20;0.20;;;23.80;60.60;;;;;;6318858;28;20032;-72
2021/09/17 02:22:30;;;;;;;0.30;0.20;;;23.80;60.60;;;;;;6319318;28;20107;-72
2021/09/17 02:25:30;;;;;;;0.20;0.20;;;23.80;60.60;;;;;;6317775;28;20070;-71
2021/09/17 02:28:31;;;;;;;0.30;0.30;;;23.80;60.60;;;;;;6318829;28;20035;-72
2021/09/17 02:31:32;;;;;;;0.85;0.22;;;23.80;60.60;;;;;;6317935;28;20024;-72
2021/09/17 02:34:32;;;;;;;0.20;0.20;;;23.80;60.60;;;;;;6318429;28;20436;-72
2021/09/17 02:37:33;;;;;;;0.28;0.28;;;23.80;60.60;;;;;;6318213;28;20051;-72
2021/09/17 02:40:34;;;;;;;0.38;0.30;;;23.80;60.60;;;;;;6318445;28;20024;-73
2021/09/17 02:43:34;;;;;;;0.20;0.20;;;23.80;60.60;;;;;;6318224;28;20464;-72
2021/09/17 02:46:35;;;;;;;0.60;0.30;;;23.80;60.60;;;;;;6314692;28;20063;-72
2021/09/17 02:49:36;;;;;;;0.35;0.30;;;23.80;60.60;;;;;;6318570;28;20425;-72
2021/09/17 02:52:36;;;;;;;0.35;0.30;;;23.80;60.60;;;;;;6317603;28;20030;-72
2021/09/17 02:55:37;;;;;;;0.40;0.30;;;23.80;60.60;;;;;;6317763;28;20082;-72
2021/09/17 02:58:37;;;;;;;0.30;0.30;;;23.80;60.60;;;;;;6318093;28;20043;-72
2021/09/17 03:01:38;;;;;;;0.20;0.20;;;23.80;60.60;;;;;;6317625;28;20360;-72
2021/09/17 03:04:38;;;;;;;0.40;0.40;;;23.80;60.60;;;;;;6318338;28;20058;-72
2021/09/17 03:07:39;;;;;;;0.47;0.30;;;23.80;60.60;;;;;;6317214;28;20071;-73
2021/09/17 03:10:40;;;;;;;0.30;0.30;;;23.80;60.60;;;;;;6318160;28;20111;-72
2021/09/17 03:13:40;;;;;;;0.28;0.28;;;23.80;60.60;;;;;;6315610;28;20021;-72
2021/09/17 03:16:41;;;;;;;0.40;0.40;;;23.80;60.60;;;;;;6294263;28;20024;-72
2021/09/17 03:19:41;;;;;;;0.30;0.30;;;23.80;60.60;;;;;;6317294;28;20507;-72
2021/09/17 03:22:42;;;;;;;0.40;0.25;;;23.80;60.60;;;;;;6317732;28;20516;-73
2021/09/17 03:25:43;;;;;;;0.20;0.20;;;23.80;60.60;;;;;;6317941;28;20024;-72
2021/09/17 03:28:43;;;;;;;0.55;0.32;;;23.80;60.60;;;;;;6317373;28;20479;-72
2021/09/17 03:31:44;;;;;;;0.15;0.15;;;23.80;60.60;;;;;;6316808;28;20032;-72
2021/09/17 03:34:45;;;;;;;0.20;0.20;;;23.80;60.60;;;;;;6317155;28;20421;-72
2021/09/17 03:37:46;;;;;;;0.35;0.20;;;23.80;60.60;;;;;;6316103;28;20454;-72
2021/09/17 03:40:48;;;;;;;0.30;0.30;;;23.80;60.60;;;;;;6317365;28;20020;-73
2021/09/17 03:43:48;;;;;;;0.25;0.25;;;23.80;60.60;;;;;;6316365;28;20031;-72
2021/09/17 03:46:49;;;;;;;0.20;0.20;;;23.80;60.60;;;;;;6317289;28;20103;-72
2021/09/17 03:49:49;;;;;;;0.98;0.28;;;23.80;60.60;;;;;;6316601;28;20027;-72
2021/09/17 03:52:50;;;;;;;0.63;0.30;;;23.80;60.60;;;;;;6317052;28;20028;-72
2021/09/17 03:55:50;;;;;;;0.30;0.30;;;23.80;60.60;;;;;;6316877;28;20437;-73
2021/09/17 03:58:51;;;;;;;0.30;0.30;;;23.80;60.60;;;;;;6316233;28;20032;-73
2021/09/17 04:01:51;;;;;;;0.45;0.28;;;23.80;60.60;;;;;;6316618;28;20223;-72
2021/09/17 04:04:52;;;;;;;0.20;0.20;;;23.80;60.60;;;;;;6316726;28;20051;-72
2021/09/17 04:07:53;;;;;;;0.30;0.30;;;23.80;60.60;;;;;;6315973;28;20048;-72
2021/09/17 04:10:53;;;;;;;1.30;0.20;;;23.80;60.60;;;;;;6316481;28;20060;-72
2021/09/17 04:13:53;;;;;;;0.73;0.30;;;23.80;60.60;;;;;;6312802;28;20012;-73
2021/09/17 04:16:54;;;;;;;0.68;0.50;;;23.80;60.60;;;;;;6290734;28;20032;-73
2021/09/17 04:19:55;;;;;;;1.25;0.32;;;23.80;60.60;;;;;;6309727;28;20103;-71
2021/09/17 04:22:55;;;;;;;0.10;0.10;;;23.80;60.50;;;;;;6316201;28;20467;-72
2021/09/17 04:25:56;;;;;;;0.30;0.30;;;23.80;60.60;;;;;;6315778;28;20446;-72
2021/09/17 04:28:56;;;;;;;0.75;0.30;;;23.80;60.60;;;;;;6315801;28;20051;-72
2021/09/17 04:31:57;;;;;;;0.20;0.20;;;23.80;60.60;;;;;;6314406;28;20035;-72
2021/09/17 04:34:57;;;;;;;0.25;0.20;;;23.80;60.60;;;;;;6315824;28;20423;-72
2021/09/17 04:37:59;;;;;;;0.47;0.25;;;23.80;60.60;;;;;;6316033;28;20117;-72
2021/09/17 04:41:00;;;;;;;0.32;0.28;;;23.80;60.60;;;;;;6315462;28;20054;-73
2021/09/17 04:44:00;;;;;;;0.22;0.22;;;23.80;60.60;;;;;;6315604;28;20114;-72
2021/09/17 04:47:01;;;;;;;0.30;0.30;;;23.80;60.60;;;;;;6315479;28;20062;-72
2021/09/17 04:50:03;;;;;;;0.20;0.20;;;23.80;60.50;;;;;;6314838;28;20425;-72
2021/09/17 04:53:04;;;;;;;0.20;0.20;;;23.80;60.60;;;;;;6315892;28;20653;-72
2021/09/17 04:56:04;;;;;;;0.30;0.30;;;23.80;60.60;;;;;;6314210;28;20020;-72
2021/09/17 04:59:05;;;;;;;0.20;0.20;;;23.80;60.60;;;;;;6315035;28;20046;-72
2021/09/17 05:02:06;;;;;;;0.30;0.30;;;23.80;60.60;;;;;;6303646;28;20381;-72
2021/09/17 05:05:07;;;;;;;0.28;0.28;;;23.80;60.60;;;;;;6303156;28;20025;-73
2021/09/17 05:08:08;;;;;;;0.10;0.10;;;23.80;60.60;;;;;;6315279;28;20118;-72
2021/09/17 05:11:09;;;;;;;0.20;0.20;;;23.80;60.60;;;;;;6315762;28;20052;-72
2021/09/17 05:14:10;;;;;;;0.55;0.22;;;23.80;60.60;;;;;;6311171;28;20048;-72
2021/09/17 05:17:10;;;;;;;0.30;0.20;;;23.80;60.60;;;;;;6315469;28;20038;-72
2021/09/17 05:20:11;;;;;;;0.40;0.30;;;23.80;60.60;;;;;;6314973;28;20028;-72
2021/09/17 05:23:12;;;;;;;0.10;0.10;;;23.80;60.60;;;;;;6315246;28;20554;-72
2021/09/17 05:26:12;;;;;;;0.63;0.20;;;23.80;61.40;;;;;;6313943;28;20063;-72
2021/09/17 05:29:13;;;;;;;0.50;0.30;;;23.80;60.60;;;;;;6314907;28;20028;-72
2021/09/17 05:32:14;;;;;;;0.40;0.30;;;23.80;60.60;;;;;;6315385;28;20043;-72
2021/09/17 05:35:14;;;;;;;0.20;0.20;;;23.80;60.60;;;;;;6314656;28;20442;-72
2021/09/17 05:38:15;;;;;;;0.20;0.20;;;23.80;60.60;;;;;;6315394;28;20115;-73
2021/09/17 05:41:15;;;;;;;0.10;0.10;;;23.80;60.60;;;;;;6314586;28;20031;-72
2021/09/17 05:44:16;;;;;;;0.30;0.30;;;23.80;60.60;;;;;;6315182;28;20415;-72
2021/09/17 05:47:17;;;;;;;0.20;0.20;;;23.80;60.60;;;;;;6313540;28;20111;-72
2021/09/17 05:50:18;;;;;;;0.35;0.30;;;23.80;60.60;;;;;;6314639;28;20107;-72
2021/09/17 05:53:18;;;;;;;0.20;0.20;;;23.80;60.50;;;;;;6315089;28;20024;-72
2021/09/17 05:56:19;;;;;;;0.20;0.20;;;23.80;60.50;;;;;;6314711;28;20271;-73
2021/09/17 05:59:20;;;;;;;0.20;0.20;;;23.80;60.60;;;;;;6313161;28;20085;-73
2021/09/17 06:02:20;;;;;;;0.52;0.20;;;23.80;60.50;;;;;;6306509;28;20116;-72
2021/09/17 06:05:21;;;;;;;0.30;0.30;;;23.80;60.50;;;;;;6302405;28;20189;-72
2021/09/17 06:08:21;;;;;;;0.63;0.32;;;23.80;60.50;;;;;;6302182;28;20419;-72
2021/09/17 06:11:22;;;;;;;0.68;0.40;;;23.80;59.60;;;;;;6310438;28;20197;-73
2021/09/17 06:14:22;;;;;;;6.35;1.20;;;23.80;58.60;;;;;;6313661;28;20133;-73
2021/09/17 06:17:23;;;;;;;3.75;0.77;;;23.80;57.60;;;;;;6310055;28;20125;-72
2021/09/17 06:20:23;;;;;;;3.08;0.68;;;23.80;58.20;;;;;;6320193;28;20036;-73
2021/09/17 06:23:24;;;;;;;1.80;0.50;;;23.80;57.50;;;;;;6315607;28;20052;-73
2021/09/17 06:26:30;;;;;;;7.40;0.80;;;23.80;56.30;;;;;;6320854;28;20020;-73
2021/09/17 06:29:30;;;;;;;1.70;0.50;;;23.80;56.20;;;;;;6320144;28;20051;-72
2021/09/17 06:32:31;;;;;;;1.33;0.55;;;23.90;55.40;;;;;;6319982;28;20509;-72
2021/09/17 06:35:31;;;;;;;2.97;0.70;;;24.00;54.40;;;;;;6320148;28;20020;-73
2021/09/17 06:38:32;;;;;;;1.40;0.52;;;24.00;53.90;;;;;;6319452;28;20446;-73
2021/09/17 06:41:32;;;;;;;5.05;0.65;;;24.10;54.30;;;;;;6319584;28;20107;-73
2021/09/17 06:44:33;;;;;;;3.72;0.70;;;24.10;53.30;;;;;;6319456;28;20643;-72
2021/09/17 06:47:48;;;;;;;4.95;0.70;;;24.20;53.10;;;;;;6318049;28;20023;-72
2021/09/17 06:50:48;;;;;;;7.95;0.60;;;24.20;52.80;;;;;;6319697;28;20051;-72
2021/09/17 06:53:49;;;;;;;1.80;0.50;;;24.30;52.60;;;;;;6316393;28;20050;-72
2021/09/17 06:56:49;;;;;;;2.80;1.13;;;24.30;52.60;;;;;;6317474;28;20024;-72
2021/09/17 06:59:50;;;;;;;2.05;0.60;;;24.30;52.30;;;;;;6319234;28;20089;-72
2021/09/17 07:02:51;;;;;;;6.80;0.80;;;24.40;52.30;;;;;;6319359;28;20031;-72
2021/09/17 07:05:52;;;;;;;2.53;0.75;;;24.40;52.60;;;;;;6320043;28;20020;-73
2021/09/17 07:08:54;;;;;;;1.38;0.50;;;24.40;52.60;;;;;;6318592;28;20089;-72
2021/09/17 07:11:54;;;;;;;4.18;0.52;;;24.50;52.70;;;;;;6315754;28;20030;-72
2021/09/17 07:14:55;;;;;;;2.42;0.60;;;24.50;52.80;;;;;;6306870;28;20345;-73
2021/09/17 07:17:55;;;;;;;0.90;0.52;;;24.50;52.90;;;;;;6310452;28;20036;-72
2021/09/17 07:20:57;;;;;;;1.90;0.60;;;24.50;53.20;;;;;;6318745;28;20499;-73
2021/09/17 07:23:57;;;;;;;3.88;0.70;;;24.50;53.20;;;;;;6319255;28;20024;-72
2021/09/17 07:26:58;;;;;;;1.27;0.43;;;24.50;53.20;;;;;;6318976;28;20537;-72
2021/09/17 07:29:59;;;;;;;1.48;0.50;;;24.50;53.20;;;;;;6318728;28;20024;-73
2021/09/17 07:33:00;;;;;;;1.98;0.60;;;24.50;53.10;;;;;;6314562;28;20444;-72
2021/09/17 07:36:00;;;;;;;1.95;0.88;;;24.50;53.20;;;;;;6319209;28;20035;-72
2021/09/17 07:39:01;;;;;;;2.20;0.90;;;24.60;53.20;;;;;;6317250;28;20060;-72
2021/09/17 07:42:01;;;;;;;1.40;0.85;;;24.60;53.10;;;;;;6318553;28;20130;-72
2021/09/17 07:45:03;;;;;;;3.83;1.63;;;24.60;53.00;;;;;;6317752;28;20031;-72
2021/09/17 07:48:04;;;;;;;5.63;1.77;;;24.60;53.10;;;;;;6318625;28;20024;-72
2021/09/17 07:51:04;;;;;;;4.57;1.92;;;24.60;53.00;;;;;;6314611;28;20039;-72
2021/09/17 07:54:05;;;;;;;5.68;2.40;;;24.60;53.50;;;;;;6318125;28;20086;-73
2021/09/17 07:57:05;;;;;;;5.53;2.67;;;24.60;53.00;;;;;;6317665;28;20028;-72
2021/09/17 08:00:09;;;;;;;6.15;2.70;;;24.60;52.90;;;;;;6314140;28;20020;-73
2021/09/17 08:03:10;;;;;;;8.25;2.65;;;24.60;52.90;;;;;;6318118;28;20024;-73
2021/09/17 08:06:12;;;;;;;5.22;2.50;;;24.60;52.80;;;;;;6307213;28;20043;-72
2021/09/17 08:09:13;;;;;;;6.40;2.90;;;24.60;52.70;;;;;;6313822;28;20039;-73
2021/09/17 08:12:14;;;;;;;6.65;2.78;;;24.60;52.70;;;;;;6317045;28;20060;-73
2021/09/17 08:15:14;;;;;;;6.70;3.13;;;24.60;52.70;;;;;;6314082;28;20032;-73
2021/09/17 08:18:15;;;;;;;7.40;2.72;;;24.60;52.70;;;;;;6316080;28;20039;-72
2021/09/17 08:21:17;;;;;;;8.25;3.03;;;24.60;52.60;;;;;;6317395;28;21538;-72
2021/09/17 08:24:17;;;;;;;7.03;3.08;;;24.60;52.60;;;;;;6317541;28;20085;-72
2021/09/17 08:27:18;;;;;;;5.93;2.75;;;24.70;52.70;;;;;;6317318;28;20391;-72
2021/09/17 08:30:19;;;;;;;6.22;3.20;;;24.60;52.50;;;;;;6316569;28;20035;-72
2021/09/17 08:33:19;;;;;;;6.53;2.70;;;24.60;52.50;;;;;;6317251;28;20028;-73
2021/09/17 08:36:20;;;;;;;7.85;3.15;;;24.70;52.60;;;;;;6317475;28;20051;-72
2021/09/17 08:39:20;;;;;;;7.40;3.45;;;24.70;52.50;;;;;;6316904;28;20471;-72
2021/09/17 08:42:21;;;;;;;6.30;3.15;;;24.70;52.50;;;;;;6317377;28;20028;-72
2021/09/17 08:45:21;;;;;;;7.63;3.00;;;24.70;52.40;;;;;;6315262;28;20308;-72
2021/09/17 08:48:27;;;;;;;10.20;3.20;;;24.70;52.40;;;;;;6309061;28;20025;-73
2021/09/17 08:51:28;;;;;;;9.00;2.72;;;24.70;52.30;;;;;;6316475;28;20054;-72
2021/09/17 08:54:29;;;;;;;5.70;2.83;;;24.70;52.30;;;;;;6316945;28;20382;-73
2021/09/17 08:57:29;;;;;;;9.20;2.90;;;24.70;52.30;;;;;;6317221;28;20024;-73
2021/09/17 09:00:30;;;;;;;5.05;2.63;;;24.70;52.30;;;;;;6306668;28;20099;-73
2021/09/17 09:03:32;;;;;;;6.03;2.72;;;24.70;52.30;;;;;;6308467;28;20417;-72
2021/09/17 09:06:39;;;;;;;7.10;2.50;;;24.70;52.20;;;;;;6316425;28;20403;-73
2021/09/17 09:09:46;;;;;;;5.45;2.85;;;24.70;52.20;;;;;;6316454;28;20075;-72
2021/09/17 09:12:48;;;;;;;6.88;3.10;;;24.70;52.20;;;;;;6316809;28;20025;-73
2021/09/17 09:15:48;;;;;;;6.43;2.40;;;24.70;52.20;;;;;;6309738;28;20024;-72
2021/09/17 09:18:49;;;;;;;5.57;2.42;;;24.70;52.10;;;;;;6316204;28;20403;-73
2021/09/17 09:22:07;;;;;;;7.68;2.90;;;24.70;52.10;;;;;;6316677;28;20048;-72
2021/09/17 09:25:12;;;;;;;4.38;1.98;;;24.70;52.00;;;;;;6297030;28;20035;-72
2021/09/17 09:28:14;;;;;;;8.63;2.40;;;24.80;52.00;;;;;;6316939;28;20012;-73
2021/09/17 09:31:16;;;;;;;6.95;3.03;;;24.80;52.00;;;;;;6316395;28;20065;-72
2021/09/17 09:34:17;;;;;;;7.53;2.25;;;24.80;51.90;;;;;;6317143;28;20686;-72
2021/09/17 09:37:28;;;;;;;5.85;2.60;;;24.80;52.00;;;;;;6320977;28;20550;-72
2021/09/17 09:40:29;;;;;;;3.85;2.10;;;24.80;52.00;;;;;;6320972;28;20038;-72
2021/09/17 09:43:48;;;;;;;5.63;2.40;;;24.80;51.80;;;;;;6321577;28;20028;-72
2021/09/17 09:46:49;;;;;;;3.75;1.85;;;24.80;51.90;;;;;;6321007;28;20448;-72
2021/09/17 09:50:04;;;;;;;6.22;2.13;;;24.80;51.80;;;;;;6321298;28;20026;-72
2021/09/17 09:53:15;;;;;;;6.47;2.43;;;24.80;51.80;;;;;;6320950;28;20062;-72
2021/09/17 09:56:18;;;;;;;6.53;2.63;;;24.80;51.80;;;;;;6320900;28;20373;-72
2021/09/17 09:59:35;;;;;;;5.20;2.80;;;24.80;51.90;;;;;;6321079;28;20070;-72
2021/09/17 10:02:37;;;;;;;5.53;2.33;;;24.80;51.80;;;;;;6315818;28;20024;-72
2021/09/17 10:05:37;;;;;;;4.82;2.45;;;24.80;51.80;;;;;;6316336;28;20433;-72
2021/09/17 10:08:39;;;;;;;8.25;3.60;;;24.80;51.70;;;;;;6320832;28;20101;-72
2021/09/17 10:11:40;;;;;;;9.80;4.07;;;24.80;51.70;;;;;;6319088;28;20028;-72
2021/09/17 10:14:43;;;;;;;9.98;3.88;;;24.80;51.70;;;;;;6310460;28;20032;-73
2021/09/17 10:17:50;;;;;;;7.13;3.72;;;24.80;51.40;;;;;;6313431;28;20028;-73
2021/09/17 10:20:51;;;;;;;8.50;4.07;;;24.80;51.40;;;;;;6320767;28;20592;-72
2021/09/17 10:23:56;;;;;;;9.38;3.95;;;24.80;51.40;;;;;;6320782;28;20024;-72
2021/09/17 10:27:02;;;;;;;11.90;4.55;;;24.80;51.40;;;;;;6319322;28;20355;-73
2021/09/17 10:30:08;;;;;;;9.05;4.07;;;24.80;51.40;;;;;;6320772;28;20059;-73
2021/09/17 10:33:29;;;;;;;10.18;4.40;;;24.80;51.30;;;;;;6320771;28;20042;-72
2021/09/17 10:36:42;;;;;;;9.75;4.22;;;24.80;51.40;;;;;;6320198;28;20036;-73
2021/09/17 10:39:42;;;;;;;11.18;4.50;;;24.80;51.20;;;;;;6321627;28;20036;-72
2021/09/17 10:43:08;;;;;;;10.07;4.35;;;24.80;51.30;;;;;;6322053;28;20488;-72
2021/09/17 10:46:31;;;;;;;8.63;3.97;;;24.80;51.20;;;;;;6320497;28;20059;-73
2021/09/17 10:50:02;;;;;;;8.50;4.25;;;24.80;51.20;;;;;;6295882;28;20021;-72
2021/09/17 10:53:02;;;;;;;7.80;3.88;;;24.80;51.20;;;;;;6309828;28;20518;-73
2021/09/17 10:56:03;;;;;;;8.35;4.30;;;24.80;51.10;;;;;;6320260;28;20134;-73
2021/09/17 10:59:14;;;;;;;9.10;4.22;;;24.80;51.20;;;;;;6319436;28;20059;-72
2021/09/17 11:02:15;;;;;;;9.15;4.22;;;24.80;51.20;;;;;;6315729;28;20058;-72
2021/09/17 11:05:16;;;;;;;9.10;4.18;;;24.80;51.20;;;;;;6317878;28;20020;-72
2021/09/17 11:08:43;;;;;;;9.60;3.97;;;24.80;51.10;;;;;;6308102;28;20503;-72
2021/09/17 11:11:49;;;;;;;8.70;4.15;;;24.80;51.10;;;;;;6318849;28;20483;-72
2021/09/17 11:15:01;;;;;;;10.77;4.53;;;24.80;51.10;;;;;;6307643;28;20024;-73
2021/09/17 11:18:08;;;;;;;9.10;3.90;;;24.80;51.10;;;;;;6311438;28;20368;-73
2021/09/17 11:21:16;;;;;;;9.88;4.10;;;24.80;51.10;;;;;;6318440;28;20568;-73
2021/09/17 11:24:19;;;;;;;6.75;3.47;;;24.80;51.00;;;;;;6319173;28;20062;-72
2021/09/17 11:27:20;;;;;;;8.02;3.47;;;24.80;51.00;;;;;;6318691;28;20051;-72
2021/09/17 11:30:22;;;;;;;8.63;3.70;;;24.80;51.00;;;;;;6319745;28;20493;-72
2021/09/17 11:33:23;;;;;;;8.35;3.65;;;24.80;50.90;;;;;;6319798;28;20392;-73
2021/09/17 11:36:44;;;;;;;7.25;3.35;;;24.80;51.00;;;;;;6318991;28;20032;-72
2021/09/17 11:39:45;;;;;;;6.82;3.40;;;24.80;51.00;;;;;;6318635;28;20032;-72
2021/09/17 11:42:45;;;;;;;7.30;3.40;;;24.80;50.90;;;;;;6319930;28;20031;-72
2021/09/17 11:45:48;;;;;;;7.88;3.25;;;24.80;51.00;;;;;;6319273;28;20035;-72
2021/09/17 11:48:48;;;;;;;6.35;3.33;;;24.80;50.70;;;;;;6318265;28;20030;-72
2021/09/17 11:51:56;;;;;;;8.35;3.35;;;24.80;50.70;;;;;;6318469;28;20364;-72
2021/09/17 11:55:02;;;;;;;6.65;3.38;;;24.80;50.80;;;;;;6318603;28;20038;-72
2021/09/17 11:58:03;;;;;;;8.50;3.53;;;24.90;50.80;;;;;;6317106;28;20055;-73
2021/09/17 12:01:15;;;;;;;7.95;2.97;;;24.90;50.90;;;;;;6303350;28;20093;-72
2021/09/17 12:04:15;;;;;;;5.57;2.67;;;24.80;50.70;;;;;;6314763;28;20058;-72
2021/09/17 12:07:16;;;;;;;5.85;2.72;;;24.90;50.80;;;;;;6317082;28;20047;-72
2021/09/17 12:10:20;;;;;;;8.00;2.85;;;24.80;50.70;;;;;;6311529;28;20032;-73
2021/09/17 12:13:21;;;;;;;4.68;2.42;;;24.80;50.70;;;;;;6317149;28;20028;-72
2021/09/17 12:16:22;;;;;;;4.72;2.60;;;24.90;50.80;;;;;;6297556;28;20020;-72
2021/09/17 12:19:25;;;;;;;5.28;2.60;;;24.80;50.70;;;;;;6317846;28;20020;-73
2021/09/17 12:22:43;;;;;;;3.70;1.73;;;24.80;50.70;;;;;;6317861;28;20031;-72
2021/09/17 12:25:45;;;;;;;5.20;2.33;;;24.80;50.70;;;;;;6317900;28;20483;-72
2021/09/17 12:28:51;;;;;;;4.53;2.25;;;24.90;50.70;;;;;;6317759;28;20383;-72
2021/09/17 12:31:52;;;;;;;5.20;2.40;;;24.90;50.70;;;;;;6317124;28;20161;-72
2021/09/17 12:35:29;;;;;;;6.60;2.65;;;24.90;50.80;;;;;;6318335;28;20031;-73
2021/09/17 12:38:29;;;;;;;6.55;2.47;;;24.90;50.80;;;;;;6320507;28;20457;-72
2021/09/17 12:41:30;;;;;;;4.35;2.03;;;24.90;50.80;;;;;;6316698;28;20035;-72
2021/09/17 12:44:40;;;;;;;4.80;2.10;;;24.90;50.80;;;;;;6315764;28;20025;-72
2021/09/17 12:47:50;;;;;;;4.88;1.90;;;24.80;50.70;;;;;;6317274;28;20070;-72
2021/09/17 12:50:51;;;;;;;3.88;2.13;;;24.90;50.80;;;;;;6318044;28;20023;-73
2021/09/17 12:53:52;;;;;;;3.83;1.80;;;24.90;50.80;;;;;;6317421;28;20056;-73
2021/09/17 12:57:14;;;;;;;5.55;2.00;;;24.90;50.70;;;;;;6316723;28;20043;-72
2021/09/17 13:00:15;;;;;;;5.32;2.20;;;24.90;50.80;;;;;;6316591;28;20609;-73
2021/09/17 13:03:17;;;;;;;5.07;2.28;;;24.90;50.70;;;;;;6316565;28;20059;-72
2021/09/17 13:06:18;;;;;;;4.50;1.70;;;24.90;50.70;;;;;;6316880;28;20051;-72
2021/09/17 13:09:18;;;;;;;4.88;1.85;;;24.90;50.70;;;;;;6315728;28;20131;-72
2021/09/17 13:12:19;;;;;;;3.53;1.98;;;24.90;50.70;;;;;;6316217;28;20024;-72
2021/09/17 13:15:20;;;;;;;3.80;1.80;;;24.90;50.70;;;;;;6304704;28;20044;-72
2021/09/17 13:18:21;;;;;;;3.58;1.92;;;24.90;50.70;;;;;;6310838;28;20032;-72
2021/09/17 13:21:22;;;;;;;4.10;1.77;;;24.90;50.70;;;;;;6316789;28;20025;-73
2021/09/17 13:24:22;;;;;;;4.22;1.92;;;24.90;50.70;;;;;;6317535;28;20024;-73
2021/09/17 13:27:23;;;;;;;2.75;1.40;;;24.90;50.60;;;;;;6316478;28;20027;-73
2021/09/17 13:30:26;;;;;;;2.67;1.48;;;24.90;50.60;;;;;;6316200;28;20031;-73
2021/09/17 13:33:27;;;;;;;2.78;1.52;;;24.90;50.50;;;;;;6316561;28;20068;-73
2021/09/17 13:36:27;;;;;;;3.55;1.98;;;24.90;50.70;;;;;;6316939;28;20024;-73
2021/09/17 13:39:28;;;;;;;1.77;1.00;;;24.90;50.60;;;;;;6316676;28;20491;-73
2021/09/17 13:42:28;;;;;;;4.65;1.80;;;24.90;50.50;;;;;;6309437;28;20035;-73
2021/09/17 13:45:29;;;;;;;1.90;1.30;;;24.90;50.50;;;;;;6313944;28;20390;-73
2021/09/17 13:48:29;;;;;;;1.65;1.15;;;24.90;50.50;;;;;;6315469;28;20032;-73
2021/09/17 13:51:30;;;;;;;2.70;1.30;;;24.90;50.50;;;;;;6313990;28;20020;-72
2021/09/17 13:54:31;;;;;;;2.85;1.20;;;24.90;50.50;;;;;;6313931;28;20024;-73
2021/09/17 13:57:31;;;;;;;4.93;1.38;;;24.90;50.50;;;;;;6315108;28;20031;-72
2021/09/17 14:00:32;;;;;;;2.75;1.27;;;24.90;50.50;;;;;;6305279;28;20056;-72
2021/09/17 14:03:32;;;;;;;2.50;1.35;;;24.90;50.40;;;;;;6303911;28;20024;-72
2021/09/17 14:06:34;;;;;;;6.18;1.45;;;24.90;50.40;;;;;;6295859;28;20027;-73
2021/09/17 14:09:35;;;;;;;3.13;1.00;;;24.90;50.40;;;;;;6315111;28;20601;-73
2021/09/17 14:12:35;;;;;;;4.68;1.17;;;24.90;50.30;;;;;;6315658;28;20541;-73
2021/09/17 14:15:36;;;;;;;3.33;1.52;;;24.90;50.10;;;;;;6297614;28;20052;-73
2021/09/17 14:18:36;;;;;;;2.03;1.10;;;24.90;50.00;;;;;;6308921;28;20037;-73
2021/09/17 14:21:37;;;;;;;3.38;1.00;;;24.90;49.70;;;;;;6298039;28;20099;-72
2021/09/17 14:24:38;;;;;;;2.90;0.98;;;24.90;49.40;;;;;;6319366;28;20051;-73
2021/09/17 14:27:38;;;;;;;1.88;1.00;;;24.90;49.20;;;;;;6314151;28;20024;-72
2021/09/17 14:30:39;;;;;;;4.32;0.98;;;24.90;49.10;;;;;;6313290;28;20065;-72
2021/09/17 14:33:39;;;;;;;4.30;0.90;;;24.90;48.90;;;;;;6318359;28;20082;-72
2021/09/17 14:36:40;;;;;;;2.92;0.88;;;24.90;48.80;;;;;;6319308;28;20035;-73
2021/09/17 14:39:40;;;;;;;1.52;0.90;;;24.90;48.70;;;;;;6319287;28;20789;-72
2021/09/17 14:42:42;;;;;;;1.30;0.60;;;24.90;48.60;;;;;;6318835;28;20391;-72
2021/09/17 14:45:42;;;;;;;1.92;0.80;;;24.80;48.50;;;;;;6319359;28;20452;-73
2021/09/17 14:48:43;;;;;;;4.97;1.00;;;24.90;48.50;;;;;;6318591;28;20024;-73
2021/09/17 14:51:43;;;;;;;1.80;0.85;;;24.80;48.40;;;;;;6318417;28;20024;-72
2021/09/17 14:54:44;;;;;;;0.93;0.50;;;24.80;48.20;;;;;;6318126;28;20035;-72
2021/09/17 14:57:44;;;;;;;4.15;0.80;;;24.80;48.10;;;;;;6317775;28;20103;-73
2021/09/17 15:00:45;;;;;;;2.70;0.50;;;24.80;47.90;;;;;;6318203;28;20036;-74
2021/09/17 15:03:46;;;;;;;1.67;0.93;;;24.80;47.80;;;;;;6318094;28;20024;-73
2021/09/17 15:06:46;;;;;;;1.80;0.70;;;24.80;48.40;;;;;;6316779;28;20082;-73
2021/09/17 15:09:47;;;;;;;1.42;0.70;;;24.80;47.80;;;;;;6311789;28;20060;-72
2021/09/17 15:12:47;;;;;;;3.60;0.73;;;24.80;47.80;;;;;;6317268;28;20050;-72
2021/09/17 15:15:52;;;;;;;2.90;1.00;;;24.80;47.80;;;;;;6304818;28;20434;-72
2021/09/17 15:18:53;;;;;;;5.97;1.70;;;24.80;47.70;;;;;;6302359;28;20514;-72
2021/09/17 15:21:54;;;;;;;6.80;1.27;;;24.80;47.70;;;;;;6317550;28;20115;-72
2021/09/17 15:24:54;;;;;;;3.40;1.45;;;24.80;47.70;;;;;;6317882;28;20035;-73
2021/09/17 15:27:55;;;;;;;2.70;1.77;;;24.80;47.60;;;;;;6318120;28;20048;-73
2021/09/17 15:31:00;;;;;;;6.22;2.72;;;24.80;47.50;;;;;;6316328;28;20035;-73
2021/09/17 15:34:00;;;;;;;6.30;4.00;;;24.80;47.50;;;;;;6317866;28;20173;-73
2021/09/17 15:37:01;;;;;;;8.68;4.75;;;24.80;47.60;;;;;;6310324;28;20032;-72
2021/09/17 15:40:02;;;;;;;9.75;5.25;;;24.80;47.60;;;;;;6317598;28;20028;-72
2021/09/17 15:43:03;;;;;;;11.18;7.50;;;24.80;47.40;;;;;;6317065;28;20032;-72
2021/09/17 15:46:04;;;;;;;18.95;8.35;;;24.90;47.50;;;;;;6317839;28;20025;-72